<?xml version="1.0" encoding="UTF-8" standalone="no" ?>
<gpx xmlns="http://www.topografix.com/GPX/1/1" xmlns:xsi="http://www.w3.org/2001/XMLSchema-instance" xsi:schemaLocation="http://www.topografix.com/GPX/1/1 http://www.topografix.com/GPX/1/1/gpx.xsd" version="1.1" creator="VisuGPX - https://www.visugpx.com">
  <metadata>
    <name>Argentina</name>
    <desc><![CDATA[Downloaded from eMap Software Version 2.75]]></desc>
  </metadata>
  <trk>
    <name><![CDATA[Argentina_90]]></name>
    <extensions>
      <line xmlns="http://www.topografix.com/GPX/gpx_style/0/2">
        <color>ff0000</color>
        <opacity>0.78</opacity>
        <width>0.6000</width>
      </line>
    </extensions>
    <trkseg>
      <trkpt lat="44.19774" lon="6.89113">
        <ele>1806.935303</ele>
        <time>2008-08-10T11:51:32Z</time>
      </trkpt>
      <trkpt lat="44.19761" lon="6.89115">
        <ele>1796.36084</ele>
        <time>2008-08-10T11:51:43Z</time>
      </trkpt>
      <trkpt lat="44.19744" lon="6.89141">
        <ele>1787.70874</ele>
        <time>2008-08-10T11:52:04Z</time>
      </trkpt>
      <trkpt lat="44.19735" lon="6.89175">
        <ele>1787.70874</ele>
        <time>2008-08-10T11:52:26Z</time>
      </trkpt>
      <trkpt lat="44.19718" lon="6.89201">
        <ele>1787.228027</ele>
        <time>2008-08-10T11:52:46Z</time>
      </trkpt>
      <trkpt lat="44.19705" lon="6.89253">
        <ele>1789.150879</ele>
        <time>2008-08-10T11:53:15Z</time>
      </trkpt>
      <trkpt lat="44.19693" lon="6.89266">
        <ele>1788.189697</ele>
        <time>2008-08-10T11:53:54Z</time>
      </trkpt>
      <trkpt lat="44.1969" lon="6.89259">
        <ele>1787.70874</ele>
        <time>2008-08-10T11:54:46Z</time>
      </trkpt>
      <trkpt lat="44.19686" lon="6.89261">
        <ele>1787.228027</ele>
        <time>2008-08-10T11:54:51Z</time>
      </trkpt>
      <trkpt lat="44.1966" lon="6.89304">
        <ele>1786.266846</ele>
        <time>2008-08-10T11:55:23Z</time>
      </trkpt>
      <trkpt lat="44.19645" lon="6.89315">
        <ele>1785.30542</ele>
        <time>2008-08-10T11:55:41Z</time>
      </trkpt>
      <trkpt lat="44.19643" lon="6.89323">
        <ele>1784.824951</ele>
        <time>2008-08-10T11:55:46Z</time>
      </trkpt>
      <trkpt lat="44.19637" lon="6.89371">
        <ele>1784.344238</ele>
        <time>2008-08-10T11:56:12Z</time>
      </trkpt>
      <trkpt lat="44.19617" lon="6.89426">
        <ele>1782.9021</ele>
        <time>2008-08-10T11:56:47Z</time>
      </trkpt>
      <trkpt lat="44.19609" lon="6.89429">
        <ele>1782.9021</ele>
        <time>2008-08-10T11:56:54Z</time>
      </trkpt>
      <trkpt lat="44.19581" lon="6.89454">
        <ele>1782.9021</ele>
        <time>2008-08-10T11:57:24Z</time>
      </trkpt>
      <trkpt lat="44.19557" lon="6.89487">
        <ele>1782.421631</ele>
        <time>2008-08-10T11:57:50Z</time>
      </trkpt>
      <trkpt lat="44.19525" lon="6.89504">
        <ele>1782.421631</ele>
        <time>2008-08-10T11:58:29Z</time>
      </trkpt>
      <trkpt lat="44.19514" lon="6.89532">
        <ele>1782.421631</ele>
        <time>2008-08-10T11:59:00Z</time>
      </trkpt>
      <trkpt lat="44.19495" lon="6.89575">
        <ele>1780.979736</ele>
        <time>2008-08-10T11:59:20Z</time>
      </trkpt>
      <trkpt lat="44.19461" lon="6.89602">
        <ele>1780.499023</ele>
        <time>2008-08-10T11:59:38Z</time>
      </trkpt>
      <trkpt lat="44.19439" lon="6.89617">
        <ele>1780.499023</ele>
        <time>2008-08-10T11:59:54Z</time>
      </trkpt>
      <trkpt lat="44.19422" lon="6.89609">
        <ele>1777.61499</ele>
        <time>2008-08-10T12:00:17Z</time>
      </trkpt>
      <trkpt lat="44.19411" lon="6.89613">
        <ele>1777.134521</ele>
        <time>2008-08-10T12:00:51Z</time>
      </trkpt>
      <trkpt lat="44.19409" lon="6.8963">
        <ele>1777.134521</ele>
        <time>2008-08-10T12:01:04Z</time>
      </trkpt>
      <trkpt lat="44.19392" lon="6.89663">
        <ele>1775.692383</ele>
        <time>2008-08-10T12:01:27Z</time>
      </trkpt>
      <trkpt lat="44.19356" lon="6.89718">
        <ele>1775.692383</ele>
        <time>2008-08-10T12:01:59Z</time>
      </trkpt>
      <trkpt lat="44.19343" lon="6.89733">
        <ele>1775.692383</ele>
        <time>2008-08-10T12:02:17Z</time>
      </trkpt>
      <trkpt lat="44.19343" lon="6.89753">
        <ele>1775.21167</ele>
        <time>2008-08-10T12:02:40Z</time>
      </trkpt>
      <trkpt lat="44.19328" lon="6.89832">
        <ele>1774.731201</ele>
        <time>2008-08-10T12:03:21Z</time>
      </trkpt>
      <trkpt lat="44.19323" lon="6.89869">
        <ele>1773.769775</ele>
        <time>2008-08-10T12:03:42Z</time>
      </trkpt>
      <trkpt lat="44.193" lon="6.89907">
        <ele>1772.327881</ele>
        <time>2008-08-10T12:04:12Z</time>
      </trkpt>
      <trkpt lat="44.19255" lon="6.89933">
        <ele>1769.443848</ele>
        <time>2008-08-10T12:05:02Z</time>
      </trkpt>
    </trkseg>
  </trk>
</gpx>